createdAt,value
2023-03-11T00:04:35.177Z,1
2023-03-11T00:09:36.799Z,1
2023-03-11T00:14:38.467Z,1
2023-03-11T00:19:40.092Z,1
2023-03-11T00:24:41.727Z,1
2023-03-11T00:29:43.403Z,1
2023-03-11T00:34:45.054Z,1
2023-03-11T00:39:46.673Z,0
2023-03-11T00:44:48.333Z,1
2023-03-11T00:49:49.938Z,3
2023-03-11T00:54:51.559Z,1
2023-03-11T00:59:53.466Z,1
2023-03-11T01:04:55.105Z,1
2023-03-11T01:09:56.755Z,1
2023-03-11T01:14:58.445Z,1
2023-03-11T01:20:00.068Z,1
2023-03-11T01:25:01.729Z,0
2023-03-11T01:30:03.345Z,1
2023-03-11T01:35:04.947Z,1
2023-03-11T01:40:06.688Z,1
2023-03-11T01:45:08.490Z,2
2023-03-11T01:50:10.093Z,0
2023-03-11T01:55:11.664Z,1
2023-03-11T02:00:13.562Z,1
2023-03-11T02:05:15.152Z,0
2023-03-11T02:10:16.907Z,1
2023-03-11T02:15:18.612Z,1
2023-03-11T02:20:20.320Z,1
2023-03-11T02:25:21.939Z,1
2023-03-11T02:30:23.590Z,1
2023-03-11T02:35:25.225Z,2
2023-03-11T02:40:27.000Z,1
2023-03-11T02:45:28.681Z,1
2023-03-11T02:50:30.477Z,1
2023-03-11T02:55:32.175Z,1
2023-03-11T03:00:33.877Z,1
2023-03-11T03:05:35.522Z,0
2023-03-11T03:10:37.408Z,1
2023-03-11T03:15:39.196Z,1
2023-03-11T03:20:40.919Z,1
2023-03-11T03:25:42.554Z,2
2023-03-11T03:30:44.250Z,2
2023-03-11T03:35:45.986Z,1
2023-03-11T03:40:47.676Z,2
2023-03-11T03:45:49.383Z,2
2023-03-11T03:50:51.078Z,2
2023-03-11T03:55:52.909Z,2
2023-03-11T04:00:54.771Z,2
2023-03-11T04:05:56.722Z,2
2023-03-11T04:10:58.360Z,2
2023-03-11T04:16:00.109Z,2
2023-03-11T04:21:01.741Z,2
2023-03-11T04:26:03.421Z,2
2023-03-11T04:31:05.110Z,2
2023-03-11T04:36:06.771Z,1
2023-03-11T04:41:08.895Z,1
2023-03-11T04:46:10.593Z,2
2023-03-11T04:51:12.434Z,2
2023-03-11T04:56:14.129Z,2
2023-03-11T05:01:15.828Z,1
2023-03-11T05:06:17.621Z,2
2023-03-11T05:11:19.340Z,2
2023-03-11T05:16:21.013Z,1
2023-03-11T05:21:22.678Z,0
2023-03-11T05:26:24.590Z,1
2023-03-11T05:31:26.334Z,1
2023-03-11T05:36:27.988Z,1
2023-03-11T05:41:29.748Z,1
2023-03-11T05:46:31.648Z,1
2023-03-11T05:51:33.435Z,1
2023-03-11T05:56:35.205Z,1
2023-03-11T06:01:36.851Z,1
2023-03-11T06:06:38.604Z,1
2023-03-11T06:11:40.387Z,1
2023-03-11T06:16:42.116Z,1
2023-03-11T06:21:43.787Z,1
2023-03-11T06:26:45.380Z,1
2023-03-11T06:31:47.239Z,1
2023-03-11T06:36:48.925Z,1
2023-03-11T06:41:50.542Z,1
2023-03-11T06:46:52.330Z,1
2023-03-11T06:51:53.922Z,1
2023-03-11T06:56:55.495Z,1
2023-03-11T07:01:57.184Z,1
2023-03-11T07:06:58.859Z,1
2023-03-11T07:12:00.550Z,0
2023-03-11T07:17:02.402Z,0
2023-03-11T07:22:04.097Z,1
2023-03-11T07:27:05.784Z,1
2023-03-11T07:32:07.663Z,0
2023-03-11T07:37:09.351Z,0
2023-03-11T07:42:11.169Z,1
2023-03-11T07:47:12.764Z,1
2023-03-11T07:52:14.407Z,1
2023-03-11T07:57:16.057Z,0
2023-03-11T08:02:17.768Z,1
2023-03-11T08:07:19.448Z,1
2023-03-11T08:12:21.052Z,1
2023-03-11T08:17:22.712Z,0
2023-03-11T08:22:24.404Z,1
2023-03-11T08:27:26.019Z,1
2023-03-11T08:32:27.705Z,1
2023-03-11T08:37:29.387Z,0
2023-03-11T08:42:31.100Z,1
2023-03-11T08:47:32.736Z,0
2023-03-11T08:52:34.428Z,1
2023-03-11T08:57:36.075Z,0
2023-03-11T09:02:37.781Z,0
2023-03-11T09:07:39.437Z,1
2023-03-11T09:12:41.264Z,0
2023-03-11T09:17:42.951Z,0
2023-03-11T09:22:44.574Z,0
2023-03-11T09:27:46.379Z,0
2023-03-11T09:32:48.077Z,1
2023-03-11T09:37:49.769Z,0
2023-03-11T09:42:51.354Z,1
2023-03-11T09:47:52.945Z,1
2023-03-11T09:52:54.579Z,1
2023-03-11T09:57:56.200Z,1
2023-03-11T10:02:57.896Z,1
2023-03-11T10:07:59.636Z,1
2023-03-11T10:13:01.270Z,0
2023-03-11T10:18:03.040Z,1
2023-03-11T10:23:04.968Z,1
2023-03-11T10:28:06.665Z,1
2023-03-11T10:33:08.238Z,1
2023-03-11T10:38:09.851Z,1
2023-03-11T10:43:11.672Z,1
2023-03-11T10:48:13.425Z,1
2023-03-11T10:53:15.050Z,0
2023-03-11T10:58:16.771Z,0
2023-03-11T11:03:18.440Z,0
2023-03-11T11:08:20.247Z,0
2023-03-11T11:13:21.969Z,1
2023-03-11T11:18:23.588Z,1
2023-03-11T11:23:25.215Z,1
2023-03-11T11:28:26.819Z,1
2023-03-11T11:33:28.405Z,1
2023-03-11T11:38:30.254Z,1
2023-03-11T11:43:31.992Z,1
2023-03-11T11:48:33.628Z,1
2023-03-11T11:53:35.245Z,1
2023-03-11T11:58:36.843Z,1
2023-03-11T12:03:38.527Z,2
2023-03-11T12:08:40.196Z,2
2023-03-11T12:13:41.897Z,3
2023-03-11T12:18:43.539Z,2
2023-03-11T12:23:45.193Z,2
2023-03-11T12:28:46.813Z,2
2023-03-11T12:33:48.390Z,2
2023-03-11T12:38:49.998Z,3
2023-03-11T12:43:51.602Z,2
2023-03-11T12:48:53.199Z,1
2023-03-11T12:53:54.892Z,4
2023-03-11T12:58:56.499Z,1
2023-03-11T13:03:58.114Z,2
2023-03-11T13:08:59.712Z,2
2023-03-11T13:14:01.359Z,3
2023-03-11T13:19:03.176Z,1
2023-03-11T13:24:04.806Z,3
2023-03-11T13:29:06.445Z,3
2023-03-11T13:34:08.078Z,15
2023-03-11T13:39:09.714Z,6
2023-03-11T13:44:11.300Z,5
2023-03-11T13:49:12.937Z,6
2023-03-11T13:54:14.586Z,3
2023-03-11T13:59:16.240Z,3
2023-03-11T14:04:18.010Z,3
2023-03-11T14:09:19.632Z,5
2023-03-11T14:14:21.280Z,5
2023-03-11T14:19:22.890Z,5
2023-03-11T14:24:24.516Z,20
2023-03-11T14:29:26.136Z,8
2023-03-11T14:34:27.793Z,3
2023-03-11T14:39:29.421Z,5
2023-03-11T14:44:31.023Z,5
2023-03-11T14:49:32.635Z,7
2023-03-11T14:54:34.248Z,5
2023-03-11T14:59:35.966Z,5
2023-03-11T15:04:37.537Z,5
2023-03-11T15:09:39.323Z,5
2023-03-11T15:14:40.960Z,8
2023-03-11T15:19:42.649Z,2
2023-03-11T15:24:44.250Z,3
2023-03-11T15:29:45.837Z,2
2023-03-11T15:34:47.453Z,1
2023-03-11T15:39:49.086Z,3
2023-03-11T15:44:50.759Z,5
2023-03-11T15:49:52.403Z,3
2023-03-11T15:54:56.035Z,5
2023-03-11T15:59:57.970Z,3
2023-03-11T16:04:59.805Z,2
2023-03-11T16:10:03.937Z,5
2023-03-11T16:15:05.953Z,9
2023-03-11T16:20:07.757Z,7
2023-03-11T16:25:09.367Z,5
2023-03-11T16:30:10.985Z,5
2023-03-11T16:35:12.595Z,5
2023-03-11T16:40:14.243Z,5
2023-03-11T16:45:15.931Z,5
2023-03-11T16:50:17.548Z,5
2023-03-11T16:55:19.144Z,5
2023-03-11T17:00:20.796Z,10
2023-03-11T17:05:22.543Z,6
2023-03-11T17:10:24.230Z,5
2023-03-11T17:15:25.958Z,5
2023-03-11T17:20:27.739Z,6
2023-03-11T17:25:29.383Z,3
2023-03-11T17:30:37.257Z,5
2023-03-11T17:35:39.507Z,6
2023-03-11T17:40:41.252Z,5
2023-03-11T17:45:42.924Z,6
2023-03-11T17:50:44.607Z,7
2023-03-11T17:55:46.256Z,3
2023-03-11T18:00:47.888Z,5
2023-03-11T18:05:49.544Z,9
2023-03-11T18:10:51.176Z,7
2023-03-11T18:15:52.980Z,5
2023-03-11T18:20:54.596Z,5
2023-03-11T18:25:56.261Z,3
2023-03-11T18:30:57.926Z,5
2023-03-11T18:35:59.600Z,6
2023-03-11T18:41:01.299Z,5
2023-03-11T18:46:02.995Z,5
2023-03-11T18:51:04.638Z,5
2023-03-11T18:56:06.236Z,3
2023-03-11T19:01:07.947Z,5
2023-03-11T19:06:09.649Z,5
2023-03-11T19:11:11.405Z,5
2023-03-11T19:16:13.116Z,6
2023-03-11T19:21:14.762Z,5
2023-03-11T19:26:16.454Z,3
2023-03-11T19:31:18.207Z,5
2023-03-11T19:36:20.004Z,3
2023-03-11T19:41:21.721Z,5
2023-03-11T19:46:23.574Z,3
2023-03-11T19:51:30.372Z,5
2023-03-11T19:56:34.555Z,3
2023-03-11T20:01:36.242Z,3
2023-03-11T20:06:38.113Z,3
2023-03-11T20:11:39.892Z,3
2023-03-11T20:16:41.639Z,3
2023-03-11T20:21:45.773Z,5
2023-03-11T20:26:50.055Z,6
2023-03-11T20:31:53.127Z,5
2023-03-11T20:36:54.990Z,5
2023-03-11T20:41:56.642Z,6
2023-03-11T20:46:58.364Z,5
2023-03-11T20:52:00.312Z,5
2023-03-11T20:57:02.025Z,5
2023-03-11T21:02:03.757Z,6
2023-03-11T21:07:05.470Z,7
2023-03-11T21:12:07.175Z,9
2023-03-11T21:17:08.997Z,8
2023-03-11T21:22:10.806Z,6
2023-03-11T21:27:12.633Z,7
2023-03-11T21:32:14.717Z,7
2023-03-11T21:37:16.530Z,8
2023-03-11T21:42:18.255Z,10
2023-03-11T21:47:20.093Z,8
2023-03-11T21:52:21.777Z,12
2023-03-11T21:57:23.600Z,12
2023-03-11T22:02:25.704Z,10
2023-03-11T22:07:27.315Z,8
2023-03-11T22:12:29.104Z,7
2023-03-11T22:17:30.887Z,7
2023-03-11T22:22:32.782Z,8
2023-03-11T22:27:34.587Z,7
2023-03-11T22:32:36.366Z,10
2023-03-11T22:37:38.070Z,9
2023-03-11T22:42:39.667Z,7
2023-03-11T22:47:41.377Z,7
2023-03-11T22:52:43.038Z,9
2023-03-11T22:57:44.691Z,7
2023-03-11T23:02:46.433Z,8
2023-03-11T23:07:48.364Z,8
2023-03-11T23:12:50.025Z,11
2023-03-11T23:17:51.790Z,8
2023-03-11T23:22:53.488Z,7
2023-03-11T23:27:55.161Z,8
2023-03-11T23:32:56.862Z,11
2023-03-11T23:37:58.626Z,14
2023-03-11T23:43:00.239Z,11
2023-03-11T23:48:01.982Z,10
2023-03-11T23:53:03.567Z,10
2023-03-11T23:58:05.240Z,11
